This is the latest recevied weather packets stored in our database for station/object KR4BRU. If no packets are shown the sender has not sent any weather packets the latest 10 day(s).
| Time | Temp. | Humidity | Pressure | Rain* | Wind** | Luminosity | Snow |
|---|---|---|---|---|---|---|---|
| 1777760788 | 19.44° C | 26% | 1011.2 hPa | 0 mm | - | 64 W/m² | - |
| 1777760186 | 20° C | 25% | 1011.1 hPa | 0 mm | - | 82 W/m² | - |
| 1777759585 | 19.44° C | 27% | 1011 hPa | 0 mm | - | 48 W/m² | - |
| 1777758985 | 20° C | 26% | 1011 hPa | 0 mm | - | 104 W/m² | - |
| 1777758385 | 20.56° C | 25% | 1011 hPa | 0 mm | - | 49 W/m² | - |
| 1777757779 | 20.56° C | 24% | 1010.9 hPa | 0 mm | - | 63 W/m² | - |
| 1777757175 | 20.56° C | 26% | 1010.9 hPa | 0 mm | - | 81 W/m² | - |
| 1777756574 | 20.56° C | 25% | 1010.9 hPa | 0 mm | - | 98 W/m² | - |
| 1777755975 | 20.56° C | 24% | 1010.9 hPa | 0 mm | - | 142 W/m² | - |
| 1777755374 | 20.56° C | 24% | 1010.9 hPa | 0 mm | - | 252 W/m² | - |
| 1777754774 | 20.56° C | 26% | 1011 hPa | 0 mm | - | 130 W/m² | - |
| 1777754168 | 21.67° C | 22% | 1011 hPa | 0 mm | - | 131 W/m² | - |
| 1777753567 | 21.67° C | 23% | 1010.8 hPa | 0 mm | - | 148 W/m² | - |
| 1777752967 | 20.56° C | 24% | 1010.9 hPa | 0 mm | - | 178 W/m² | - |
| 1777752366 | 22.22° C | 22% | 1010.8 hPa | 0 mm | - | 139 W/m² | - |
| 1777751761 | 23.33° C | 20% | 1011 hPa | 0 mm | - | 892 W/m² | - |
| 1777751160 | 23.33° C | 23% | 1011.1 hPa | 0 mm | - | 963 W/m² | - |
| 1777750559 | 21.67° C | 23% | 1011.1 hPa | 0 mm | - | 197 W/m² | - |
| 1777749957 | 22.22° C | 25% | 1011.1 hPa | 0 mm | - | 262 W/m² | - |
| 1777749358 | 22.78° C | 22% | 1011.1 hPa | 0 mm | - | 190 W/m² | - |
| 1777748753 | 23.33° C | 21% | 1011.2 hPa | 0 mm | - | 1064 W/m² | - |
| 1777748150 | 23.33° C | 22% | 1011.4 hPa | 0 mm | - | 1024 W/m² | - |
| 1777747549 | 21.11° C | 23% | 1011.4 hPa | 0 mm | - | 554 W/m² | - |
| 1777746948 | 21.67° C | 24% | 1011.5 hPa | 0 mm | - | 496 W/m² | - |
| 1777746345 | 21.67° C | 22% | 1011.7 hPa | 0 mm | - | 619 W/m² | - |
* Rain latest hour (hover to see other rain measurements)
** Current wind speed in m/s (hover to see current wind gust speed)